Time;durP1;ratioP1;P1;durP2;ratioP2;P2;SDS_P1;SDS_P2;PMS_P1;PMS_P2;Temp;Humidity;BMP_temperature;BMP_pressure;BME280_temperature;BME280_humidity;BME280_pressure;Samples;Min_cycle;Max_cycle;Signal;HPM_P1;HPM_P2
2022/07/08 00:01:51;;;;;;;3.40;1.67;;;15.30;99.90;;;;;;5028095;28;20119;-78
2022/07/08 00:04:16;;;;;;;3.83;1.42;;;15.30;99.90;;;;;;5042651;28;20052;-80
2022/07/08 00:06:42;;;;;;;2.80;1.73;;;15.30;99.90;;;;;;5023194;28;20045;-80
2022/07/08 00:09:10;;;;;;;0.65;0.65;;;15.30;99.90;;;;;;5021755;28;20051;-80
2022/07/08 00:11:36;;;;;;;0.82;0.70;;;15.30;99.90;;;;;;5022079;28;20041;-80
2022/07/08 00:14:02;;;;;;;0.90;0.75;;;15.30;99.90;;;;;;5024250;28;20053;-80
2022/07/08 00:16:28;;;;;;;6.93;1.15;;;15.30;99.90;;;;;;5028944;28;20045;-80
2022/07/08 00:18:54;;;;;;;1.85;1.08;;;15.30;99.90;;;;;;5022138;28;20110;-79
2022/07/08 00:21:20;;;;;;;3.17;1.38;;;15.30;99.90;;;;;;5021742;28;20037;-80
2022/07/08 00:23:46;;;;;;;0.90;0.82;;;15.30;99.90;;;;;;5022145;28;20041;-80
2022/07/08 00:26:13;;;;;;;1.42;0.82;;;15.20;99.90;;;;;;5021830;28;20519;-80
2022/07/08 00:28:38;;;;;;;2.42;1.17;;;15.30;99.90;;;;;;5020371;28;20124;-80
2022/07/08 00:31:04;;;;;;;0.90;0.82;;;15.20;99.90;;;;;;5020613;28;20440;-80
2022/07/08 00:33:30;;;;;;;2.92;0.70;;;15.20;99.90;;;;;;5022178;28;20421;-80
2022/07/08 00:35:55;;;;;;;1.10;1.00;;;15.20;99.90;;;;;;5020427;28;20049;-80
2022/07/08 00:38:21;;;;;;;1.73;1.30;;;15.10;99.90;;;;;;5020475;28;20158;-80
2022/07/08 00:40:46;;;;;;;1.50;1.33;;;15.10;99.90;;;;;;5020527;28;20880;-80
2022/07/08 00:43:38;;;;;;;2.45;0.93;;;15.10;99.90;;;;;;5020575;28;20052;-80
2022/07/08 00:46:04;;;;;;;1.45;1.35;;;15.00;99.90;;;;;;5020413;28;20108;-79
2022/07/08 00:48:30;;;;;;;0.80;0.65;;;15.00;99.90;;;;;;5021938;28;20041;-80
2022/07/08 00:50:59;;;;;;;1.33;1.05;;;15.00;99.90;;;;;;5020891;28;20045;-80
2022/07/08 00:53:25;;;;;;;1.95;0.93;;;15.00;99.90;;;;;;5020245;28;20515;-80
2022/07/08 00:55:51;;;;;;;1.88;1.17;;;15.00;99.90;;;;;;5021104;28;20033;-80
2022/07/08 00:58:17;;;;;;;1.95;1.10;;;14.90;99.90;;;;;;5019966;28;20046;-79
2022/07/08 01:00:43;;;;;;;3.72;1.23;;;14.90;99.90;;;;;;5020428;28;20037;-80
2022/07/08 01:03:08;;;;;;;2.65;0.70;;;14.90;99.90;;;;;;5021717;28;20041;-80
2022/07/08 01:05:34;;;;;;;4.72;1.35;;;14.90;99.90;;;;;;5021056;28;20053;-80
2022/07/08 01:07:59;;;;;;;2.63;0.85;;;14.90;99.90;;;;;;5020706;28;20033;-80
2022/07/08 01:10:25;;;;;;;0.82;0.80;;;14.90;99.90;;;;;;5019851;28;20038;-80
2022/07/08 01:12:52;;;;;;;6.13;1.10;;;14.80;99.90;;;;;;5020741;28;20049;-80
2022/07/08 01:15:20;;;;;;;6.20;1.92;;;14.80;99.90;;;;;;5020359;28;20433;-80
2022/07/08 01:17:47;;;;;;;2.55;1.23;;;14.80;99.90;;;;;;5019825;28;20519;-80
2022/07/08 01:20:13;;;;;;;2.58;1.52;;;14.80;99.90;;;;;;5021090;28;20033;-80
2022/07/08 01:22:39;;;;;;;0.70;0.65;;;14.80;99.90;;;;;;5036460;28;20106;-79
2022/07/08 01:25:05;;;;;;;3.90;1.40;;;14.80;99.90;;;;;;5021234;28;20060;-80
2022/07/08 01:27:32;;;;;;;3.83;0.95;;;14.80;99.90;;;;;;5029488;28;20522;-79
2022/07/08 01:29:58;;;;;;;3.20;1.15;;;14.70;99.90;;;;;;5021597;28;20053;-80
2022/07/08 01:32:34;;;;;;;2.58;1.02;;;14.80;99.90;;;;;;5024968;28;20033;-80
2022/07/08 01:35:00;;;;;;;5.93;1.75;;;14.70;99.90;;;;;;5040854;28;20124;-80
2022/07/08 01:37:25;;;;;;;1.27;0.88;;;14.70;99.90;;;;;;5023848;28;20097;-80
2022/07/08 01:39:51;;;;;;;4.47;1.48;;;14.70;99.90;;;;;;5020619;28;20069;-80
2022/07/08 01:42:17;;;;;;;1.25;0.77;;;14.60;99.90;;;;;;5039414;28;20041;-80
2022/07/08 01:44:42;;;;;;;7.47;2.33;;;14.60;99.90;;;;;;5022760;28;20045;-80
2022/07/08 01:47:08;;;;;;;3.45;1.10;;;14.60;99.90;;;;;;5019149;28;20037;-80
2022/07/08 01:49:34;;;;;;;3.00;1.20;;;14.60;99.90;;;;;;5020624;28;20095;-80
2022/07/08 01:51:59;;;;;;;1.70;1.27;;;14.50;99.90;;;;;;5020960;28;20037;-80
2022/07/08 01:54:25;;;;;;;2.17;1.58;;;14.40;99.90;;;;;;5040863;28;20040;-80
2022/07/08 01:57:13;;;;;;;3.47;1.63;;;14.40;99.90;;;;;;5024014;28;20042;-80
2022/07/08 01:59:36;;;;;;;2.85;1.50;;;14.40;99.90;;;;;;5026486;28;20126;-80
2022/07/08 02:02:02;;;;;;;3.55;1.42;;;14.40;99.90;;;;;;5030396;28;20122;-80
2022/07/08 02:04:28;;;;;;;2.88;1.65;;;14.40;99.90;;;;;;5002673;28;20099;-80
2022/07/08 02:06:53;;;;;;;1.55;0.82;;;14.40;99.90;;;;;;5035587;28;20086;-80
2022/07/08 02:09:19;;;;;;;1.85;0.95;;;14.30;99.90;;;;;;5038041;28;20092;-81
2022/07/08 02:14:28;;;;;;;1.63;1.15;;;14.30;99.90;;;;;;5020032;28;20057;-80
2022/07/08 02:16:54;;;;;;;1.60;1.50;;;14.30;99.90;;;;;;5021443;28;20049;-80
2022/07/08 02:19:19;;;;;;;2.92;1.15;;;14.30;99.90;;;;;;5034678;28;20094;-80
2022/07/08 02:21:45;;;;;;;5.47;0.90;;;14.20;99.90;;;;;;5025936;28;20041;-80
2022/07/08 02:24:11;;;;;;;4.38;1.33;;;14.20;99.90;;;;;;5021059;28;20045;-80
2022/07/08 02:26:36;;;;;;;7.45;1.02;;;14.20;99.90;;;;;;5038137;28;20033;-80
2022/07/08 02:29:02;;;;;;;2.17;1.00;;;14.20;99.90;;;;;;5025265;28;20298;-80
2022/07/08 02:31:27;;;;;;;0.63;0.52;;;14.20;99.90;;;;;;5039542;28;20045;-80
2022/07/08 02:33:53;;;;;;;1.55;1.10;;;14.10;99.90;;;;;;5029418;28;20120;-81
2022/07/08 02:36:18;;;;;;;1.67;1.20;;;14.10;99.90;;;;;;5023682;28;20050;-81
2022/07/08 02:38:44;;;;;;;0.80;0.68;;;14.10;99.90;;;;;;5027203;28;20091;-80
2022/07/08 02:41:09;;;;;;;1.33;1.23;;;14.10;99.90;;;;;;5042890;28;20426;-80
2022/07/08 02:43:35;;;;;;;5.45;1.83;;;14.10;99.90;;;;;;5033308;28;20045;-80
2022/07/08 02:46:00;;;;;;;1.08;0.98;;;14.10;99.90;;;;;;5036278;28;20404;-80
2022/07/08 02:48:26;;;;;;;0.80;0.80;;;14.00;99.90;;;;;;5043834;28;20132;-80
2022/07/08 02:50:51;;;;;;;1.85;0.85;;;14.00;99.90;;;;;;5043434;28;20090;-80
2022/07/08 02:53:17;;;;;;;2.10;1.23;;;14.00;99.90;;;;;;5027908;28;20033;-80
2022/07/08 02:55:42;;;;;;;3.92;1.75;;;13.90;99.90;;;;;;5022664;28;20582;-80
2022/07/08 02:58:08;;;;;;;3.92;2.47;;;13.90;99.90;;;;;;5022291;28;20541;-80
2022/07/08 03:00:33;;;;;;;1.38;0.80;;;13.90;99.90;;;;;;5022312;28;20049;-80
2022/07/08 03:02:59;;;;;;;4.15;1.33;;;13.90;99.90;;;;;;5021856;28;20444;-80
2022/07/08 03:05:24;;;;;;;4.75;1.73;;;13.90;99.90;;;;;;5023443;28;20470;-80
2022/07/08 03:07:50;;;;;;;3.42;1.42;;;13.80;99.90;;;;;;5042297;28;20570;-80
2022/07/08 03:10:15;;;;;;;6.10;1.85;;;13.80;99.90;;;;;;5037454;28;20107;-80
2022/07/08 03:12:41;;;;;;;1.85;1.65;;;13.80;99.90;;;;;;5023607;28;20048;-80
2022/07/08 03:15:07;;;;;;;2.20;1.60;;;13.90;99.90;;;;;;5021632;28;20136;-79
2022/07/08 03:17:33;;;;;;;4.35;1.23;;;13.90;99.90;;;;;;5023303;28;20126;-80
2022/07/08 03:19:58;;;;;;;4.10;1.17;;;13.90;99.90;;;;;;5025430;28;20633;-80
2022/07/08 03:22:24;;;;;;;2.80;1.23;;;13.90;99.90;;;;;;5042255;28;20407;-80
2022/07/08 03:24:49;;;;;;;2.97;0.95;;;13.90;99.90;;;;;;5032289;28;20547;-80
2022/07/08 03:27:15;;;;;;;2.08;1.13;;;14.00;99.90;;;;;;5022917;28;20045;-81
2022/07/08 03:29:41;;;;;;;7.03;1.27;;;14.00;99.90;;;;;;5023257;28;20091;-79
2022/07/08 03:32:06;;;;;;;2.53;0.82;;;14.00;99.90;;;;;;5022710;28;20045;-80
2022/07/08 03:34:32;;;;;;;1.35;1.25;;;14.00;99.90;;;;;;5041865;28;20581;-79
2022/07/08 03:36:57;;;;;;;1.55;0.82;;;14.10;99.90;;;;;;5041415;28;20411;-80
2022/07/08 03:39:26;;;;;;;1.90;0.98;;;14.10;99.90;;;;;;5022995;28;20554;-81
2022/07/08 03:41:51;;;;;;;2.55;1.08;;;14.10;99.90;;;;;;5022568;28;20041;-80
2022/07/08 03:44:17;;;;;;;1.45;1.35;;;14.20;99.90;;;;;;5004158;28;20045;-80
2022/07/08 03:46:42;;;;;;;0.77;0.77;;;14.10;99.90;;;;;;5020654;28;20124;-80
2022/07/08 03:49:08;;;;;;;5.85;1.10;;;14.20;99.90;;;;;;5038680;28;20048;-80
2022/07/08 03:51:34;;;;;;;1.30;1.20;;;14.20;99.90;;;;;;5022426;28;20038;-80
2022/07/08 03:53:59;;;;;;;3.05;1.65;;;14.20;99.90;;;;;;5028367;28;20045;-79
2022/07/08 03:56:25;;;;;;;2.75;1.50;;;14.30;99.90;;;;;;5032700;28;20037;-80
2022/07/08 03:58:51;;;;;;;5.97;1.88;;;14.30;99.90;;;;;;5021717;28;20041;-80
2022/07/08 04:01:16;;;;;;;5.78;1.52;;;14.30;99.90;;;;;;5037576;28;20053;-80
2022/07/08 04:03:42;;;;;;;1.65;1.02;;;14.30;99.90;;;;;;5030726;28;20069;-80
2022/07/08 04:06:07;;;;;;;2.97;1.52;;;14.30;99.90;;;;;;5021889;28;20472;-80
2022/07/08 04:08:33;;;;;;;5.10;0.93;;;14.40;99.90;;;;;;5027907;28;20153;-80
2022/07/08 04:10:58;;;;;;;1.13;1.05;;;14.30;99.90;;;;;;5041720;28;20636;-80
2022/07/08 04:13:27;;;;;;;4.60;1.50;;;14.40;99.90;;;;;;5026512;28;20038;-79
2022/07/08 04:15:53;;;;;;;0.80;0.80;;;14.40;99.90;;;;;;5021343;28;20114;-81
2022/07/08 04:18:19;;;;;;;0.82;0.80;;;14.40;99.90;;;;;;5021311;28;20503;-80
2022/07/08 04:20:45;;;;;;;1.88;1.58;;;14.40;99.90;;;;;;5037339;28;20045;-80
2022/07/08 04:23:11;;;;;;;2.13;1.30;;;14.40;99.90;;;;;;5040929;28;20045;-80
2022/07/08 04:25:36;;;;;;;2.13;1.23;;;14.40;99.90;;;;;;5033552;28;20041;-80
2022/07/08 04:28:02;;;;;;;8.98;1.05;;;14.50;99.90;;;;;;5031336;28;20075;-80
2022/07/08 04:30:28;;;;;;;3.45;1.15;;;14.50;99.90;;;;;;5035142;28;20088;-80
2022/07/08 04:32:53;;;;;;;1.85;1.35;;;14.50;99.90;;;;;;5025441;28;20128;-80
2022/07/08 04:35:19;;;;;;;2.97;1.95;;;14.50;99.90;;;;;;5021072;28;20045;-80
2022/07/08 04:37:44;;;;;;;3.90;1.73;;;14.50;99.90;;;;;;5033346;28;20052;-79
2022/07/08 04:40:10;;;;;;;4.22;2.35;;;14.50;99.90;;;;;;5041863;28;20047;-80
2022/07/08 04:42:39;;;;;;;5.97;1.52;;;14.60;99.90;;;;;;5027027;28;20136;-79
2022/07/08 04:45:05;;;;;;;3.70;1.05;;;14.60;99.90;;;;;;5020494;28;20531;-80
2022/07/08 04:47:30;;;;;;;3.65;2.10;;;14.70;99.90;;;;;;5021558;28;20037;-80
2022/07/08 04:49:56;;;;;;;2.55;0.95;;;14.70;99.90;;;;;;5020664;28;20527;-79
2022/07/08 04:52:21;;;;;;;5.38;1.83;;;14.70;99.90;;;;;;5021405;28;20042;-80
2022/07/08 04:54:47;;;;;;;5.82;1.73;;;14.80;99.90;;;;;;5021015;28;20045;-80
2022/07/08 04:57:12;;;;;;;2.78;1.67;;;14.80;99.90;;;;;;5022043;28;20416;-80
2022/07/08 04:59:39;;;;;;;7.85;1.52;;;14.90;99.90;;;;;;5036134;28;20046;-80
2022/07/08 05:02:04;;;;;;;1.63;0.95;;;14.90;99.90;;;;;;5019861;28;20041;-80
2022/07/08 05:04:30;;;;;;;3.53;1.08;;;14.90;99.90;;;;;;5033536;28;20060;-80
2022/07/08 05:06:55;;;;;;;5.18;1.38;;;15.00;99.90;;;;;;5024978;28;20492;-79
2022/07/08 05:09:21;;;;;;;1.05;1.00;;;15.00;99.90;;;;;;5021796;28;20479;-80
2022/07/08 05:11:47;;;;;;;10.50;1.42;;;15.00;99.90;;;;;;5019921;28;20670;-80
2022/07/08 05:14:13;;;;;;;4.30;1.65;;;15.10;99.90;;;;;;5031462;28;20044;-80
2022/07/08 05:16:40;;;;;;;2.75;2.03;;;15.10;99.90;;;;;;5027510;28;20140;-82
2022/07/08 05:19:06;;;;;;;1.75;1.35;;;15.20;99.90;;;;;;5019981;28;20033;-80
2022/07/08 05:21:32;;;;;;;1.73;1.20;;;15.20;99.90;;;;;;5021424;28;20037;-80
2022/07/08 05:23:58;;;;;;;6.35;2.10;;;15.20;99.90;;;;;;5029019;28;20106;-80
2022/07/08 05:26:23;;;;;;;2.05;1.33;;;15.30;99.90;;;;;;5037918;28;20045;-80
2022/07/08 05:28:49;;;;;;;3.83;2.35;;;15.30;99.90;;;;;;5020564;28;20054;-81
2022/07/08 05:31:15;;;;;;;5.13;1.63;;;15.30;99.90;;;;;;5019731;28;20090;-80
2022/07/08 05:33:40;;;;;;;1.75;1.10;;;15.40;99.90;;;;;;5033823;28;20049;-80
2022/07/08 05:36:06;;;;;;;5.53;1.33;;;15.40;99.90;;;;;;5026681;28;20057;-80
2022/07/08 05:38:33;;;;;;;6.95;1.60;;;15.50;99.90;;;;;;5018812;28;20049;-80
2022/07/08 05:40:58;;;;;;;2.40;1.02;;;15.60;99.90;;;;;;5020463;28;20491;-80
2022/07/08 05:43:24;;;;;;;2.88;0.75;;;15.60;99.90;;;;;;5023149;28;20064;-80
2022/07/08 05:45:49;;;;;;;2.22;0.95;;;15.70;99.90;;;;;;5039296;28;20052;-79
2022/07/08 05:48:15;;;;;;;2.53;1.83;;;15.70;99.90;;;;;;5031002;28;20040;-80
2022/07/08 05:50:40;;;;;;;8.52;2.33;;;15.80;99.90;;;;;;5020745;28;20125;-79
2022/07/08 05:53:06;;;;;;;2.60;1.63;;;15.80;99.90;;;;;;5019792;28;20455;-80
2022/07/08 05:55:31;;;;;;;4.05;1.77;;;15.80;99.90;;;;;;5019075;28;20755;-79
2022/07/08 05:57:57;;;;;;;4.68;2.47;;;15.80;99.90;;;;;;5020461;28;20499;-79
2022/07/08 06:00:23;;;;;;;2.38;1.52;;;15.80;99.90;;;;;;5019568;28;20042;-80
2022/07/08 06:02:51;;;;;;;2.40;1.52;;;15.90;99.90;;;;;;5020502;28;20053;-82
2022/07/08 06:05:17;;;;;;;7.93;1.40;;;15.90;99.90;;;;;;5018166;28;20045;-81
2022/07/08 06:07:42;;;;;;;5.28;1.75;;;15.90;99.90;;;;;;5022418;28;20132;-81
2022/07/08 06:10:08;;;;;;;1.63;1.02;;;16.00;99.90;;;;;;5016511;28;20100;-80
2022/07/08 06:12:34;;;;;;;5.40;1.50;;;16.00;99.90;;;;;;5018260;28;20079;-80
2022/07/08 06:14:59;;;;;;;4.22;1.25;;;16.10;99.90;;;;;;5021233;28;20058;-82
2022/07/08 06:17:25;;;;;;;7.38;1.90;;;16.20;99.90;;;;;;5018138;28;20037;-83
2022/07/08 06:19:50;;;;;;;5.82;1.92;;;16.20;99.90;;;;;;5022065;28;20051;-84
2022/07/08 06:22:16;;;;;;;6.05;1.40;;;16.30;99.90;;;;;;5020386;28;20060;-84
2022/07/08 06:24:42;;;;;;;4.05;1.73;;;16.30;99.90;;;;;;5018186;28;20084;-84
2022/07/08 06:27:08;;;;;;;4.30;2.17;;;16.40;99.90;;;;;;5012400;28;20045;-86
2022/07/08 06:29:36;;;;;;;3.53;2.03;;;16.40;99.90;;;;;;5014365;28;20060;-86
2022/07/08 06:32:04;;;;;;;3.75;1.23;;;16.50;99.90;;;;;;5013290;28;20044;-83
2022/07/08 06:34:30;;;;;;;3.22;1.80;;;16.50;99.90;;;;;;5009728;28;20124;-83
2022/07/08 06:36:55;;;;;;;3.00;1.80;;;16.50;99.90;;;;;;5015750;28;20475;-84
2022/07/08 06:39:21;;;;;;;5.15;1.60;;;16.60;99.90;;;;;;5005422;28;20067;-84
2022/07/08 06:41:46;;;;;;;2.53;1.30;;;16.70;99.90;;;;;;5018134;28;20041;-82
2022/07/08 06:44:12;;;;;;;3.38;1.27;;;16.70;99.90;;;;;;5015613;28;20451;-83
2022/07/08 06:46:38;;;;;;;4.30;1.25;;;16.80;99.90;;;;;;5018481;28;20037;-84
2022/07/08 06:49:03;;;;;;;2.75;1.50;;;16.80;99.90;;;;;;5021552;28;20144;-82
2022/07/08 06:51:29;;;;;;;3.60;1.77;;;16.80;99.90;;;;;;5021579;28;20128;-80
2022/07/08 06:56:55;;;;;;;5.40;1.65;;;16.90;99.90;;;;;;4921578;29;20048;-82
2022/07/08 06:59:24;;;;;;;7.82;1.08;;;16.90;99.90;;;;;;5003116;28;20053;-81
2022/07/08 07:01:50;;;;;;;3.45;1.27;;;17.00;99.90;;;;;;5021248;28;20030;-82
2022/07/08 07:04:15;;;;;;;1.88;1.48;;;17.00;99.90;;;;;;5022156;28;20049;-80
2022/07/08 07:06:41;;;;;;;2.55;1.42;;;17.00;99.90;;;;;;5015810;28;20128;-81
2022/07/08 07:09:06;;;;;;;2.72;1.98;;;17.00;99.90;;;;;;5000252;28;20049;-83
2022/07/08 07:11:32;;;;;;;1.17;1.08;;;17.00;99.90;;;;;;5016597;28;20037;-81
2022/07/08 07:13:57;;;;;;;2.75;1.85;;;17.00;99.90;;;;;;5002796;28;20096;-81
2022/07/08 07:16:23;;;;;;;1.40;1.27;;;17.10;99.90;;;;;;5019275;28;20045;-80
2022/07/08 07:18:49;;;;;;;3.47;1.65;;;17.10;99.90;;;;;;5003837;28;20492;-80
2022/07/08 07:21:14;;;;;;;2.58;1.27;;;17.10;99.90;;;;;;5021240;28;20102;-80
2022/07/08 07:23:40;;;;;;;3.45;1.40;;;17.20;99.90;;;;;;5022751;28;20052;-80
2022/07/08 07:26:06;;;;;;;1.48;1.38;;;17.20;99.90;;;;;;5021169;28;20513;-80
2022/07/08 07:28:31;;;;;;;3.55;1.23;;;17.20;99.90;;;;;;5016922;28;20041;-80
2022/07/08 07:30:57;;;;;;;2.05;0.63;;;17.30;99.90;;;;;;5024889;28;20613;-81
2022/07/08 07:33:22;;;;;;;2.15;1.35;;;17.30;99.90;;;;;;5021933;28;20042;-80
2022/07/08 07:35:48;;;;;;;7.07;1.33;;;17.30;99.90;;;;;;5008908;28;20500;-80
2022/07/08 07:38:14;;;;;;;2.20;1.27;;;17.40;99.90;;;;;;5021756;28;20047;-80
2022/07/08 07:40:39;;;;;;;6.75;1.42;;;17.40;99.90;;;;;;5012512;28;20484;-80
2022/07/08 07:43:05;;;;;;;3.80;1.38;;;17.50;99.90;;;;;;5016141;28;20033;-80
2022/07/08 07:45:30;;;;;;;3.70;1.92;;;17.60;99.90;;;;;;5016408;28;20088;-81
2022/07/08 07:47:56;;;;;;;4.95;1.45;;;17.60;99.90;;;;;;5010404;28;20404;-80
2022/07/08 07:50:22;;;;;;;2.13;1.30;;;17.70;99.90;;;;;;5018652;28;20451;-80
2022/07/08 07:52:47;;;;;;;3.63;1.00;;;17.70;99.90;;;;;;5021116;28;20029;-80
2022/07/08 07:55:13;;;;;;;4.40;1.48;;;17.70;99.90;;;;;;5021571;28;20045;-80
2022/07/08 07:57:38;;;;;;;4.97;1.48;;;17.80;99.90;;;;;;5020488;28;20303;-80
2022/07/08 08:00:06;;;;;;;10.73;1.83;;;17.80;99.90;;;;;;5012358;28;20033;-80
2022/07/08 08:02:32;;;;;;;3.42;1.38;;;17.80;99.90;;;;;;5016613;28;20030;-80
2022/07/08 08:04:57;;;;;;;4.00;1.88;;;17.80;99.90;;;;;;5013181;28;20270;-80
2022/07/08 08:07:23;;;;;;;5.38;1.23;;;17.90;99.90;;;;;;5020038;28;20469;-81
2022/07/08 08:09:48;;;;;;;2.65;1.50;;;17.90;99.90;;;;;;5019755;28;20072;-80
2022/07/08 08:12:14;;;;;;;4.60;1.40;;;17.90;99.90;;;;;;5019982;28;20222;-80
2022/07/08 08:14:39;;;;;;;1.90;1.08;;;18.00;99.90;;;;;;5019999;28;20527;-80
2022/07/08 08:17:05;;;;;;;4.97;1.83;;;18.00;99.90;;;;;;5020213;28;20057;-80
2022/07/08 08:19:31;;;;;;;2.45;1.13;;;18.00;99.90;;;;;;5021551;28;20048;-81
2022/07/08 08:21:57;;;;;;;1.25;1.00;;;18.10;99.90;;;;;;5012353;28;20076;-80
2022/07/08 08:24:23;;;;;;;1.58;1.17;;;18.10;99.90;;;;;;5021623;28;20599;-81
2022/07/08 08:26:48;;;;;;;2.38;1.25;;;18.20;99.90;;;;;;5020115;28;20045;-82
2022/07/08 08:29:14;;;;;;;0.70;0.65;;;18.20;99.90;;;;;;5019935;28;20045;-80
2022/07/08 08:31:39;;;;;;;2.50;1.50;;;18.30;99.90;;;;;;5020391;28;20081;-83
2022/07/08 08:34:05;;;;;;;1.00;0.85;;;18.30;99.90;;;;;;5019543;28;20064;-81
2022/07/08 08:36:31;;;;;;;0.80;0.73;;;18.40;99.90;;;;;;5022266;28;20160;-81
2022/07/08 08:38:56;;;;;;;1.63;1.20;;;18.40;99.90;;;;;;5021084;28;20095;-83
2022/07/08 08:41:23;;;;;;;3.72;1.50;;;18.50;99.90;;;;;;5019430;28;20047;-83
2022/07/08 08:43:48;;;;;;;1.58;1.15;;;18.50;99.90;;;;;;5020512;28;20053;-83
2022/07/08 08:46:22;;;;;;;1.17;1.08;;;18.60;99.90;;;;;;5019875;28;20797;-84
2022/07/08 08:48:49;;;;;;;2.65;0.85;;;18.60;99.90;;;;;;5021012;28;20045;-83
2022/07/08 08:51:19;;;;;;;1.15;0.93;;;18.70;99.90;;;;;;5020922;28;20090;-83
2022/07/08 08:53:45;;;;;;;1.80;0.95;;;18.70;99.90;;;;;;5021373;28;20052;-84
2022/07/08 08:56:15;;;;;;;1.15;0.90;;;18.70;99.90;;;;;;5021356;28;20045;-83
2022/07/08 08:58:47;;;;;;;5.65;0.95;;;18.80;99.90;;;;;;5021709;28;20041;-82
2022/07/08 09:01:14;;;;;;;0.83;0.83;;;18.80;99.90;;;;;;5019755;28;20486;-84
2022/07/08 09:03:39;;;;;;;3.85;1.10;;;18.90;99.90;;;;;;5004082;28;20312;-85
2022/07/08 09:06:06;;;;;;;1.38;0.90;;;18.90;99.90;;;;;;5019517;28;20038;-85
2022/07/08 09:08:32;;;;;;;1.55;1.00;;;18.90;99.90;;;;;;5021465;28;20045;-85
2022/07/08 09:10:58;;;;;;;1.90;0.90;;;19.00;99.90;;;;;;5020566;28;20073;-82
2022/07/08 09:13:25;;;;;;;1.42;1.17;;;19.00;99.90;;;;;;5005719;28;20104;-81
2022/07/08 09:15:55;;;;;;;0.95;0.73;;;19.00;99.90;;;;;;5000050;28;20093;-81
2022/07/08 09:18:25;;;;;;;3.58;1.23;;;19.00;99.90;;;;;;5001282;28;20042;-82
2022/07/08 09:20:53;;;;;;;3.05;1.20;;;19.00;99.90;;;;;;5018982;28;20137;-79
2022/07/08 09:23:20;;;;;;;4.72;0.90;;;19.10;99.90;;;;;;5017361;28;20038;-81
2022/07/08 09:25:48;;;;;;;4.00;1.25;;;19.10;99.90;;;;;;5018401;28;20026;-80
2022/07/08 09:28:15;;;;;;;0.75;0.75;;;19.20;99.90;;;;;;5018196;28;20041;-81
2022/07/08 09:30:43;;;;;;;0.93;0.82;;;19.20;99.90;;;;;;5018456;28;20087;-81
2022/07/08 09:33:11;;;;;;;0.80;0.77;;;19.20;99.90;;;;;;5019059;28;20329;-82
2022/07/08 09:35:38;;;;;;;1.73;0.57;;;19.20;99.90;;;;;;5000641;28;20045;-81
2022/07/08 09:38:06;;;;;;;2.60;1.15;;;19.30;99.90;;;;;;5017047;28;20071;-81
2022/07/08 09:40:32;;;;;;;0.52;0.52;;;19.30;99.90;;;;;;5017125;28;20037;-82
2022/07/08 09:43:01;;;;;;;2.30;0.75;;;19.30;99.90;;;;;;5018508;28;20317;-82
2022/07/08 09:45:33;;;;;;;3.85;1.25;;;19.40;99.90;;;;;;5015136;28;20069;-84
2022/07/08 09:48:17;;;;;;;8.77;2.13;;;19.40;99.90;;;;;;5017431;28;20083;-85
2022/07/08 09:50:47;;;;;;;2.40;1.75;;;19.40;99.90;;;;;;5017253;28;20041;-86
2022/07/08 09:53:19;;;;;;;6.18;1.58;;;19.50;99.90;;;;;;5019088;28;20103;-86
2022/07/08 09:55:51;;;;;;;1.20;0.95;;;19.50;99.90;;;;;;5017572;28;20056;-85
2022/07/08 09:58:21;;;;;;;2.60;1.63;;;19.60;99.90;;;;;;5012113;28;20037;-84
2022/07/08 10:00:49;;;;;;;1.88;1.63;;;19.60;99.90;;;;;;5011520;28;20050;-83
2022/07/08 10:03:15;;;;;;;1.40;1.10;;;19.60;99.90;;;;;;5010889;28;20037;-82
2022/07/08 10:05:42;;;;;;;2.88;1.55;;;19.60;99.90;;;;;;5005741;28;20464;-83
2022/07/08 10:08:09;;;;;;;5.70;1.65;;;19.70;99.90;;;;;;5010356;28;20124;-84
2022/07/08 10:10:36;;;;;;;1.75;1.58;;;19.70;99.90;;;;;;5013462;28;20143;-82
2022/07/08 10:13:03;;;;;;;3.03;1.33;;;19.70;99.90;;;;;;5014168;28;20324;-85
2022/07/08 10:15:33;;;;;;;2.80;1.60;;;19.80;99.90;;;;;;5010515;28;20056;-84
2022/07/08 10:18:22;;;;;;;9.18;1.92;;;19.80;99.90;;;;;;5015644;28;20149;-85
2022/07/08 10:20:51;;;;;;;7.00;1.67;;;19.90;99.90;;;;;;5015718;28;20041;-84
2022/07/08 10:23:27;;;;;;;2.45;1.45;;;19.90;99.90;;;;;;5020169;28;20438;-85
2022/07/08 10:25:55;;;;;;;1.85;1.45;;;20.00;99.90;;;;;;5019739;28;20049;-88
2022/07/08 10:28:33;;;;;;;5.55;1.60;;;20.00;99.90;;;;;;5020499;28;20037;-89
2022/07/08 10:30:59;;;;;;;9.00;1.45;;;20.00;99.90;;;;;;5019587;28;20065;-89
2022/07/08 10:33:26;;;;;;;2.67;1.77;;;20.00;99.90;;;;;;5019805;28;20038;-89
2022/07/08 10:36:08;;;;;;;1.52;1.42;;;20.00;99.90;;;;;;5018764;28;20041;-89
2022/07/08 10:38:38;;;;;;;2.85;1.63;;;20.10;99.90;;;;;;5019886;28;20128;-88
2022/07/08 10:41:10;;;;;;;2.40;1.92;;;20.00;99.90;;;;;;5020013;28;20052;-89
2022/07/08 10:43:37;;;;;;;4.28;1.38;;;20.00;99.90;;;;;;5015601;28;20091;-90
2022/07/08 10:46:12;;;;;;;2.28;1.42;;;19.90;99.90;;;;;;5007359;28;20038;-90
2022/07/08 10:48:41;;;;;;;4.82;1.40;;;19.80;99.90;;;;;;5012691;28;20048;-89
2022/07/08 10:51:28;;;;;;;2.58;1.15;;;19.80;99.90;;;;;;5011022;28;20060;-88
2022/07/08 10:53:54;;;;;;;2.55;1.40;;;19.90;99.90;;;;;;4999336;28;20049;-89
2022/07/08 10:56:45;;;;;;;6.28;1.67;;;19.90;99.90;;;;;;5019695;28;20133;-89
2022/07/08 10:59:28;;;;;;;2.45;1.95;;;19.90;99.90;;;;;;5014180;28;20503;-89
2022/07/08 11:01:57;;;;;;;3.45;1.48;;;19.80;99.90;;;;;;4998827;28;20045;-90
2022/07/08 11:04:28;;;;;;;1.25;1.15;;;19.90;99.90;;;;;;5005523;28;20492;-82
2022/07/08 11:06:56;;;;;;;2.45;1.92;;;19.90;99.90;;;;;;5023147;28;20092;-84
2022/07/08 11:09:23;;;;;;;5.10;1.92;;;20.00;99.90;;;;;;5019011;28;20034;-84
2022/07/08 11:11:49;;;;;;;3.45;1.85;;;20.10;99.90;;;;;;5013209;28;20050;-84
2022/07/08 11:14:15;;;;;;;3.40;2.45;;;20.10;99.90;;;;;;5009452;28;20064;-82
2022/07/08 11:16:41;;;;;;;5.63;2.25;;;20.20;99.90;;;;;;5004023;28;20400;-82
2022/07/08 11:19:07;;;;;;;2.65;1.67;;;20.30;99.90;;;;;;5017987;28;20086;-83
2022/07/08 11:21:33;;;;;;;2.78;1.95;;;20.40;99.90;;;;;;5001172;28;20203;-82
2022/07/08 11:23:59;;;;;;;5.88;2.03;;;20.50;99.90;;;;;;5018663;28;20053;-82
2022/07/08 11:26:24;;;;;;;4.40;2.42;;;20.50;99.90;;;;;;5021538;28;20342;-82
2022/07/08 11:28:50;;;;;;;1.95;1.77;;;20.50;99.90;;;;;;5013094;28;20053;-81
2022/07/08 11:31:26;;;;;;;2.38;1.77;;;20.50;99.90;;;;;;5011424;28;20034;-82
2022/07/08 11:33:52;;;;;;;4.75;1.75;;;20.60;99.90;;;;;;5001054;28;20056;-82
2022/07/08 11:36:19;;;;;;;5.47;1.98;;;20.60;99.90;;;;;;5018386;28;20440;-82
2022/07/08 11:38:49;;;;;;;7.13;2.40;;;20.60;99.90;;;;;;5016486;28;20069;-82
2022/07/08 11:41:17;;;;;;;3.45;2.70;;;20.60;99.90;;;;;;5021972;28;20045;-82
2022/07/08 11:43:43;;;;;;;2.95;2.00;;;20.70;99.90;;;;;;5021376;28;20050;-87
2022/07/08 11:46:20;;;;;;;3.42;2.53;;;20.70;99.90;;;;;;5022260;28;20037;-87
2022/07/08 11:48:46;;;;;;;2.63;1.90;;;20.80;99.90;;;;;;5017817;28;20037;-88
2022/07/08 11:51:16;;;;;;;5.43;2.42;;;20.80;99.90;;;;;;5020453;28;20045;-84
2022/07/08 11:53:42;;;;;;;3.00;2.10;;;20.80;99.90;;;;;;5016352;28;20045;-84
2022/07/08 11:56:08;;;;;;;3.42;1.90;;;20.90;99.90;;;;;;5018744;28;20061;-82
2022/07/08 11:58:34;;;;;;;2.33;1.63;;;21.00;99.90;;;;;;5022897;28;20079;-82
2022/07/08 12:00:59;;;;;;;2.28;1.55;;;21.00;99.90;;;;;;5017340;28;20068;-83
2022/07/08 12:03:27;;;;;;;8.52;2.40;;;21.00;99.90;;;;;;5014178;28;20396;-92
2022/07/08 12:05:53;;;;;;;3.08;2.53;;;21.00;99.90;;;;;;5019871;28;20034;-90
2022/07/08 12:08:18;;;;;;;4.05;1.67;;;21.10;99.90;;;;;;5013667;28;20042;-93
2022/07/08 12:10:45;;;;;;;2.45;1.25;;;21.10;99.90;;;;;;5014533;28;20065;-93
2022/07/08 12:13:11;;;;;;;3.60;2.58;;;21.10;99.90;;;;;;5015294;28;20049;-85
2022/07/08 12:15:37;;;;;;;7.63;2.58;;;21.10;99.90;;;;;;5018415;28;20061;-82
2022/07/08 12:18:04;;;;;;;2.20;2.00;;;21.10;99.90;;;;;;5016402;28;20049;-93
2022/07/08 12:20:32;;;;;;;2.58;2.00;;;21.00;99.90;;;;;;5016275;28;20562;-94
2022/07/08 12:22:58;;;;;;;2.65;1.58;;;21.00;99.90;;;;;;5017195;28;20500;-84
2022/07/08 12:25:23;;;;;;;6.15;2.47;;;21.00;99.90;;;;;;4997723;28;20052;-91
2022/07/08 12:27:57;;;;;;;5.47;1.63;;;21.00;99.90;;;;;;5018788;28;20488;-89
2022/07/08 12:30:30;;;;;;;5.93;2.30;;;21.10;99.90;;;;;;5008574;28;20037;-88
2022/07/08 12:33:03;;;;;;;4.05;2.45;;;21.10;99.90;;;;;;5036366;28;20041;-84
2022/07/08 12:35:33;;;;;;;4.22;1.90;;;21.00;99.90;;;;;;5032348;28;20589;-83
2022/07/08 12:38:06;;;;;;;4.40;2.50;;;21.10;99.90;;;;;;5019083;28;20080;-83
2022/07/08 12:40:42;;;;;;;3.20;2.28;;;21.10;99.90;;;;;;5016967;28;20106;-85
2022/07/08 12:43:13;;;;;;;5.07;2.60;;;21.10;99.90;;;;;;5016431;28;20446;-86
2022/07/08 12:45:39;;;;;;;7.78;2.55;;;21.20;99.90;;;;;;5012925;28;20718;-81
2022/07/08 12:48:05;;;;;;;3.40;2.08;;;21.20;99.90;;;;;;5014028;28;20038;-87
2022/07/08 12:50:32;;;;;;;2.97;1.23;;;21.10;99.90;;;;;;5013788;28;20049;-88
2022/07/08 12:52:58;;;;;;;2.92;1.70;;;21.10;99.90;;;;;;5020876;28;20080;-87